• Join FlightAware (Why Join?)
  • Login
  • US Flag 
04:33PM EDT


 

Airport Tracker/Info


-or-


 

Live Flight TrackerFlight Track Log ✈ UAL70 ✈ 11-Apr-2013 ✈ KEWR - EHAM / AMS

Flight Track Log - Related Links

Times and Time Zones

All times are in EDT time to prevent confusion due to time zone crossing. See the UAL70 flight status page for this flight to view local times or setup timezone preferences in your user account.

Time Position Orientation Groundspeed Altitude Reporting Facility
EDT Latitude Longitude Course Direction KTS MPH feet Rate Location/Type
07:10PM 40.7524 -74.1296 27° Northeast 229 264 3,100  Level FlightAware ADS-B
07:10PM 40.7672 -74.1212 23° Northeast 243 280 3,600 1,860 Climbing FlightAware ADS-B
07:11PM 40.8013 -74.1002 25° Northeast 272 313 4,600 1,680 Climbing FlightAware ADS-B
07:11PM 40.8173 -74.0892 27° Northeast 289 333 4,900 1,920 Climbing FlightAware ADS-B
07:11PM 40.8299 -74.0770 36° Northeast 293 337 5,400 2,580 Climbing FlightAware ADS-B
07:11PM 40.8339 -74.0703 52° Northeast 295 339 5,600 2,400 Climbing FlightAware ADS-B
07:11PM 40.8376 -74.0623 59° Northeast 295 339 5,800 2,640 Climbing FlightAware ADS-B
07:11PM 40.8394 -74.0566 67° East 295 339 6,000 2,700 Climbing FlightAware ADS-B
07:11PM 40.8430 -74.0437 70° East 298 343 6,300 2,160 Climbing FlightAware ADS-B
07:12PM 40.8486 -74.0165 75° East 303 349 6,800 1,140 Climbing FlightAware ADS-B
07:12PM 40.8532 -73.9876 78° East 309 356 6,900 180 Climbing FlightAware ADS-B
07:12PM 40.8578 -73.9596 78° East 307 353 6,900  Level FlightAware ADS-B
07:12PM 40.8626 -73.9313 77° East 303 349 6,900 840 Level FlightAware ADS-B
07:13PM 40.8740 -73.8640 77° East 307 353 7,700 1,620 Climbing FlightAware
07:14PM 40.8820 -73.8150 78° East 315 362 8,700 2,160 Climbing FlightAware
07:14PM 40.8920 -73.7620 76° East 323 372 9,700 1,200 Climbing FlightAware
07:15PM 40.9030 -73.7010 77° East 338 389 9,900 180 Climbing FlightAware
07:15PM 40.9160 -73.6530 70° East 333 383 9,900 660 Level FlightAware
07:16PM 40.9640 -73.5820 48° Northeast 358 412 10,700 1,320 Climbing FlightAware
07:16PM 41.0150 -73.5250 40° Northeast 385 443 11,800 1,980 Climbing FlightAware
07:17PM 41.0630 -73.4580 46° Northeast 394 453 13,400 2,280 Climbing FlightAware
07:18PM 41.1190 -73.3700 50° Northeast 410 472 15,100 2,100 Climbing FlightAware
07:18PM 41.1690 -73.2910 50° Northeast 420 483 16,400 2,040 Climbing FlightAware
07:19PM 41.1980 -73.2450 50° Northeast 420 483 17,200 1,200 Climbing FlightAware ADS-B
07:20PM 41.2800 -73.1140 50° Northeast 470 541 18,100 960 Climbing FlightAware
07:20PM 41.3118 -73.0639 50° Northeast 448 516 18,600 780 Climbing FlightAware ADS-B
07:21PM 41.3930 -72.9350 50° Northeast 494 568 19,200 1,380 Climbing FlightAware
07:22PM 41.4620 -72.8230 51° Northeast 508 585 21,100 2,580 Climbing FlightAware
07:23PM 41.5300 -72.7130 50° Northeast 495 570 23,100 1,440 Climbing FlightAware
07:23PM 41.5830 -72.6280 50° Northeast 495 570 23,200 1,620 Climbing FlightAware
07:24PM 41.5790 -72.6340 228° Southwest 25,300 2,460 Climbing FlightAware
07:25PM 41.6770 -72.4470 55° Northeast 500 575 26,100 1,200 Climbing FlightAware
07:25PM 41.7180 -72.3590 58° Northeast 515 593 26,700 1,200 Climbing FlightAware
07:26PM 41.8140 -72.1410 59° Northeast 524 603 28,300 1,200 Climbing FlightAware
07:27PM 41.8550 -72.0080 67° East 532 612 29,100 1,260 Climbing FlightAware
07:28PM 41.8860 -71.8360 76° East 533 613 30,400 1,440 Climbing FlightAware
07:29PM 41.9100 -71.7080 76° East 531 611 31,400 1,380 Climbing FlightAware
07:29PM 41.9350 -71.5640 77° East 530 610 32,400 1,260 Climbing FlightAware
07:30PM 41.9570 -71.4370 77° East 528 608 33,200 1,200 Climbing FlightAware
07:31PM 41.9800 -71.3070 77° East 526 605 34,100 1,200 Climbing FlightAware
07:32PM 42.0040 -71.1660 77° East 525 604 34,900 720 Climbing FlightAware
07:32PM 42.0220 -71.0600 77° East 527 606 35,000 60 Climbing FlightAware
07:33PM 42.0460 -70.9170 77° East 526 605 35,000  Level FlightAware
07:34PM 42.0690 -70.7830 77° East 526 605 35,000  Level FlightAware
07:34PM 42.0950 -70.6260 77° East 525 604 35,000  Level FlightAware
07:35PM 42.1160 -70.4990 77° East 524 603 35,000  Level FlightAware
07:36PM 42.1370 -70.3720 77° East 524 603 35,000  Level FlightAware
07:36PM 42.1580 -70.2440 77° East 525 604 35,000  Level FlightAware
07:37PM 42.1790 -70.1150 78° East 524 603 35,000  Level FlightAware
07:38PM 42.2000 -69.9830 78° East 524 603 35,000  Level FlightAware
07:39PM 42.2240 -69.8320 78° East 525 604 35,000  Level FlightAware
07:39PM 42.2450 -69.7020 78° East 524 603 35,000  Level FlightAware
07:40PM 42.2600 -69.6010 79° East 524 603 35,000  Level FlightAware
07:41PM 42.2870 -69.4300 78° East 524 603 35,000  Level FlightAware
07:41PM 42.3070 -69.3010 78° East 524 603 35,000  Level FlightAware
07:42PM 42.3250 -69.1820 78° East 524 603 35,000  Level FlightAware
07:43PM 42.3480 -69.0270 79° East 522 601 35,000  Level FlightAware
07:43PM 42.3700 -68.8830 78° East 522 601 35,000  Level FlightAware
07:44PM 42.3880 -68.7580 79° East 524 603 35,000  Level FlightAware
07:45PM 42.4070 -68.6290 79° East 524 603 35,000  Level FlightAware
07:46PM 42.4280 -68.4850 79° East 524 603 35,000  Level FlightAware
07:46PM 42.4470 -68.3550 79° East 524 603 35,000  Level FlightAware
07:47PM 42.4740 -68.1610 79° East 524 603 35,000  Level FlightAware
07:48PM 42.4910 -68.0440 79° East 525 604 35,000  Level FlightAware
07:48PM 42.5060 -67.9360 79° East 525 604 35,000  Level FlightAware
07:49PM 42.5260 -67.7990 79° East 525 604 35,000  Level FlightAware
07:50PM 42.5410 -67.6890 79° East 525 604 35,000  Level FlightAware
07:51PM 42.5570 -67.5790 79° East 525 604 35,000  Level FlightAware
07:51PM 42.5730 -67.4690 79° East 525 604 35,000  Level FlightAware
07:52PM 42.5890 -67.3590 79° East 525 604 35,000  Level FlightAware
07:53PM 42.6080 -67.2210 79° East 525 604 35,000  Level FlightAware
07:53PM 42.6240 -67.1110 79° East 525 604 35,000  Level FlightAware
07:54PM 42.6400 -67.0010 79° East 525 604 35,000  Level FlightAware
07:55PM 42.6560 -66.8900 79° East 525 604 35,000  Level FlightAware
07:56PM 42.7770 -66.5860 61° Northeast 35,000  Level FlightAware
07:56PM 42.8230 -66.4560 64° Northeast 514 592 35,000  Level FlightAware
07:57PM 42.8700 -66.3250 64° Northeast 516 594 35,000  Level FlightAware
07:58PM 42.9110 -66.2090 64° Northeast 516 594 35,000  Level FlightAware
07:58PM 42.9580 -66.0770 64° Northeast 515 593 35,000  Level FlightAware
07:59PM 42.9990 -65.9610 64° Northeast 515 593 35,000  Level FlightAware
08:00PM 43.0410 -65.8420 64° Northeast 511 588 35,000  Level FlightAware
08:00PM 43.0860 -65.7100 65° Northeast 511 588 35,000  Level FlightAware
08:01PM 43.1270 -65.5940 64° Northeast 512 589 35,000  Level FlightAware
08:02PM 43.1730 -65.4600 65° Northeast 514 592 35,000  Level FlightAware
08:03PM 43.2140 -65.3430 64° Northeast 514 592 35,000  Level FlightAware
08:03PM 43.2610 -65.2070 65° Northeast 515 593 35,000  Level FlightAware
08:04PM 43.3020 -65.0860 65° Northeast 516 594 35,000  Level FlightAware
08:05PM 43.3410 -64.9710 65° Northeast 518 596 35,000  Level FlightAware
08:05PM 43.3880 -64.8320 65° Northeast 519 597 35,000  Level FlightAware
08:06PM 43.4270 -64.7160 65° Northeast 519 597 35,000  Level FlightAware
08:07PM 43.4740 -64.5780 65° Northeast 521 600 35,000  Level FlightAware
08:07PM 43.5020 -64.4940 65° Northeast 522 601 35,000  Level FlightAware
08:08PM 43.5400 -64.3750 66° East 522 601 35,000  Level FlightAware
08:09PM 43.5820 -64.2460 66° East 522 601 35,000  Level FlightAware
08:10PM 43.6150 -64.1420 66° East 522 601 35,000  Level FlightAware
08:10PM 43.6480 -64.0380 66° East 522 601 35,000  Level FlightAware
08:11PM 43.6820 -63.9350 65° Northeast 522 601 35,000  Level FlightAware
08:12PM 43.7150 -63.8310 66° East 522 601 35,000  Level FlightAware
08:12PM 43.8040 -63.5740 64° Northeast 35,000  Level FlightAware
08:13PM 43.8167 -63.4667 64° Northeast 530 610 35,000  Level Gander Center
08:14PM 43.9000 -63.2667 60° Northeast 530 610 35,000  Level Gander Center
08:15PM 43.9500 -63.0833 69° East 530 610 35,000  Level Gander Center
08:16PM 44.0000 -62.9000 69° East 530 610 35,000  Level Gander Center
08:17PM 44.0667 -62.7167 63° Northeast 530 610 35,000  Level Gander Center
08:18PM 44.1167 -62.5167 71° East 530 610 35,000  Level Gander Center
08:19PM 44.1833 -62.3333 63° Northeast 530 610 35,000  Level Gander Center
08:20PM 44.2333 -62.1500 69° East 530 610 35,000  Level Gander Center
08:21PM 44.3000 -61.9500 65° Northeast 530 610 35,000  Level Gander Center
08:22PM 44.3667 -61.7667 63° Northeast 530 610 35,000  Level Gander Center
08:23PM 44.4167 -61.5667 71° East 540 621 35,000  Level Gander Center
08:24PM 44.4667 -61.3833 69° East 530 610 35,000  Level Gander Center
08:25PM 44.5333 -61.1833 65° Northeast 540 621 35,000  Level Gander Center
08:26PM 44.5833 -61.0000 69° East 540 621 35,000  Level Gander Center
08:27PM 44.6500 -60.7833 67° East 540 621 35,000  Level Gander Center
08:28PM 44.6833 -60.6000 76° East 540 621 35,000  Level Gander Center
08:29PM 44.7500 -60.3833 67° East 540 621 35,000  Level Gander Center
08:30PM 44.8000 -60.2000 69° East 540 621 35,000  Level Gander Center
08:31PM 44.8667 -60.0167 63° Northeast 540 621 35,000  Level Gander Center
08:32PM 44.9167 -59.8167 70° East 540 621 35,000  Level Gander Center
08:33PM 44.9667 -59.6167 70° East 540 621 35,000  Level Gander Center
08:34PM 45.0333 -59.4167 65° Northeast 540 621 35,000  Level Gander Center
08:35PM 45.0667 -59.2333 76° East 540 621 35,000  Level Gander Center
08:36PM 45.1333 -59.0167 66° East 550 633 35,000  Level Gander Center
08:37PM 45.1833 -58.8167 70° East 550 633 35,000  Level Gander Center
08:38PM 45.2500 -58.6000 66° East 550 633 35,000  Level Gander Center
08:39PM 45.3000 -58.3833 72° East 560 644 35,000  Level Gander Center
08:40PM 45.3500 -58.1667 72° East 560 644 35,000  Level Gander Center
08:46PM 45.6890 -56.9350 72° East 578 665 35,000  Level FlightAware
08:47PM 45.7240 -56.7890 71° East 576 663 35,000  Level FlightAware
08:47PM 45.7600 -56.6280 72° East 579 666 35,000  Level FlightAware
08:48PM 45.8040 -56.4260 73° East 576 663 35,000  Level FlightAware
08:49PM 45.8380 -56.2650 73° East 575 662 35,000  Level FlightAware
08:50PM 45.8590 -56.1650 73° East 573 659 35,000  Level FlightAware
08:50PM 45.9050 -55.9510 73° East 567 652 35,000  Level FlightAware
08:51PM 45.9350 -55.8080 73° East 564 649 35,000  Level FlightAware
08:52PM 45.9600 -55.6920 73° East 563 648 35,000  Level FlightAware
08:52PM 45.9900 -55.5480 73° East 563 648 35,000  Level FlightAware
08:53PM 46.0160 -55.4260 73° East 563 648 35,000  Level FlightAware
08:54PM 46.0690 -55.1690 73° East 563 648 35,000  Level FlightAware
08:55PM 46.1010 -55.0050 74° East 565 650 35,000  Level FlightAware
08:55PM 46.1240 -54.8920 74° East 564 649 35,000  Level FlightAware
08:56PM 46.1590 -54.7160 74° East 566 651 35,000  Level FlightAware
08:57PM 46.1910 -54.5510 74° East 567 652 35,000  Level FlightAware
08:58PM 46.2200 -54.4020 74° East 569 655 35,000  Level FlightAware
08:58PM 46.2510 -54.2420 74° East 569 655 35,000  Level FlightAware
08:59PM 46.2800 -54.0940 74° East 571 657 35,000  Level FlightAware
09:00PM 46.3120 -53.9270 74° East 573 659 35,000  Level FlightAware
09:00PM 46.3390 -53.7850 75° East 574 661 35,000  Level FlightAware
09:01PM 46.3680 -53.6320 75° East 573 659 35,000  Level FlightAware
09:02PM 46.3990 -53.4670 75° East 574 661 35,000  Level FlightAware
09:03PM 46.4260 -53.3180 75° East 576 663 35,000  Level FlightAware
09:03PM 46.4570 -53.1500 75° East 576 663 35,000  Level FlightAware
09:04PM 46.4830 -53.0040 75° East 577 664 35,000  Level FlightAware
09:05PM 46.5210 -52.7920 75° East 577 664 35,000  Level FlightAware
09:06PM 46.5500 -52.6300 75° East 580 667 35,000  Level FlightAware
09:06PM 46.5770 -52.4760 76° East 576 663 35,000  Level FlightAware
09:07PM 46.6030 -52.3280 76° East 574 661 35,000  Level FlightAware
09:08PM 46.6330 -52.1570 76° East 573 659 35,000  Level FlightAware
09:08PM 46.6580 -52.0080 76° East 571 657 35,000  Level FlightAware
09:09PM 46.6840 -51.8570 76° East 570 656 35,000  Level FlightAware
09:10PM 46.7110 -51.6970 76° East 570 656 35,000  Level FlightAware
09:10PM 46.7360 -51.5450 76° East 568 654 35,000  Level FlightAware
09:11PM 46.7610 -51.4000 76° East 566 651 35,000  Level FlightAware
09:12PM 46.7860 -51.2510 76° East 566 651 35,000  Level FlightAware
09:13PM 46.8070 -51.1250 76° East 566 651 35,000  Level FlightAware
09:13PM 46.8290 -50.9980 76° East 566 651 35,000  Level FlightAware
09:14PM 46.8500 -50.8720 76° East 566 651 35,000  Level FlightAware
09:15PM 46.8770 -50.7140 76° East 566 651 35,000  Level FlightAware
09:15PM 46.8990 -50.5880 76° East 566 651 35,000  Level FlightAware
09:16PM 46.9200 -50.4610 76° East 566 651 35,000  Level FlightAware
09:17PM 46.9420 -50.3350 76° East 566 651 35,000  Level FlightAware
09:17PM 46.9630 -50.2080 76° East 566 651 35,000  Level FlightAware
09:18PM 46.9900 -50.0500 76° East 566 651 35,000  Level FlightAware
09:19PM 47.0120 -49.9230 76° East 566 651 35,000  Level FlightAware
09:20PM 47.0330 -49.7970 76° East 566 651 35,000  Level FlightAware
09:20PM 47.0550 -49.6700 76° East 566 651 35,000  Level FlightAware
09:21PM 47.0760 -49.5430 76° East 566 651 35,000  Level FlightAware
09:22PM 47.0833 -48.9667 76° East 560 644 35,000  Level Gander Center
09:23PM 47.1167 -48.7333 78° East 550 633 35,000  Level Gander Center
09:24PM 47.1500 -48.5333 76° East 560 644 35,000  Level Gander Center
09:26PM 47.2000 -48.0667 81° East 540 621 35,000  Level Gander Center
09:28PM 47.0000 -50.0000 78° East 534 615 35,000  Level ETMS Enhanced Traffic Management System
09:28PM 47.2500 -47.6333 78° East 540 621 35,000  Level Gander Center
09:29PM 47.2833 -47.4167 77° East 540 621 35,000  Level Gander Center
09:30PM 47.3000 -47.2167 83° East 540 621 35,000  Level Gander Center
09:31PM 47.3333 -46.9833 78° East 540 621 35,000  Level Gander Center
09:32PM 47.3667 -46.7833 76° East 530 610 35,000  Level Gander Center
09:35PM 47.4040 -46.4793 80° East  Level FlightAware Approximate
09:42PM 47.5643 -45.0859 80° East  Level FlightAware Approximate
09:43PM 47.5858 -44.8862 81° East  Level FlightAware Approximate
09:44PM 47.6070 -44.6863 81° East  Level FlightAware Approximate
09:45PM 47.6278 -44.4862 81° East  Level FlightAware Approximate
09:46PM 47.6483 -44.2860 81° East  Level FlightAware Approximate
09:47PM 47.6684 -44.0856 81° East  Level FlightAware Approximate
09:48PM 47.6881 -43.8851 82° East  Level FlightAware Approximate
09:49PM 47.7076 -43.6844 82° East  Level FlightAware Approximate
09:50PM 47.7266 -43.4836 82° East  Level FlightAware Approximate
09:51PM 47.7453 -43.2826 82° East  Level FlightAware Approximate
09:52PM 47.7637 -43.0815 82° East  Level FlightAware Approximate
09:53PM 47.7817 -42.8803 82° East  Level FlightAware Approximate
09:54PM 47.7994 -42.6789 82° East  Level FlightAware Approximate
09:55PM 47.8167 -42.4774 83° East  Level FlightAware Approximate
09:56PM 47.8337 -42.2757 83° East  Level FlightAware Approximate
09:57PM 47.8503 -42.0739 83° East  Level FlightAware Approximate
09:58PM 47.8666 -41.8720 83° East  Level FlightAware Approximate
09:59PM 47.8825 -41.6700 83° East  Level FlightAware Approximate
10:00PM 47.8980 -41.4678 83° East  Level FlightAware Approximate
10:01PM 47.9132 -41.2655 84° East  Level FlightAware Approximate
10:02PM 47.9280 -41.0631 84° East  Level FlightAware Approximate
10:03PM 47.9425 -40.8606 84° East  Level FlightAware Approximate
10:04PM 47.9566 -40.6580 84° East  Level FlightAware Approximate
10:05PM 47.9704 -40.4552 84° East  Level FlightAware Approximate
10:05PM 48.0000 -40.0000 78° East 512 589 35,000  Level ETMS Enhanced Traffic Management System
10:06PM 47.9838 -40.2524 84° East  Level FlightAware Approximate
10:07PM 47.9969 -40.0494 84° East  Level FlightAware Approximate
10:08PM 48.0219 -39.8493 78° East  Level FlightAware Approximate
10:09PM 48.0506 -39.6497 78° East  Level FlightAware Approximate
10:10PM 48.0789 -39.4500 78° East  Level FlightAware Approximate
10:11PM 48.1068 -39.2500 78° East  Level FlightAware Approximate
10:12PM 48.2581 -38.1182 79° East 512 589 35,000  Level FlightAware Transoceanic
10:13PM 48.2848 -37.9079 79° East 512 589 35,000  Level FlightAware Transoceanic
10:14PM 48.3112 -37.6975 79° East 512 589 35,000  Level FlightAware Transoceanic
10:15PM 48.3372 -37.4868 80° East 512 589 35,000  Level FlightAware Transoceanic
10:16PM 48.3628 -37.2759 80° East 512 589 35,000  Level FlightAware Transoceanic
10:17PM 48.3881 -37.0648 80° East 512 589 35,000  Level FlightAware Transoceanic
10:18PM 48.4129 -36.8535 80° East 512 589 35,000  Level FlightAware Transoceanic
10:19PM 48.4374 -36.6420 80° East 512 589 35,000  Level FlightAware Transoceanic
10:20PM 48.4614 -36.4303 80° East 512 589 35,000  Level FlightAware Transoceanic
10:21PM 48.4851 -36.2184 81° East 512 589 35,000  Level FlightAware Transoceanic
10:22PM 48.5084 -36.0063 81° East 512 589 35,000  Level FlightAware Transoceanic
10:23PM 48.5313 -35.7940 81° East 512 589 35,000  Level FlightAware Transoceanic
10:24PM 48.5538 -35.5815 81° East 512 589 35,000  Level FlightAware Transoceanic
10:25PM 48.5759 -35.3688 81° East 512 589 35,000  Level FlightAware Transoceanic
10:26PM 48.5977 -35.1559 81° East 512 589 35,000  Level FlightAware Transoceanic
10:27PM 48.6190 -34.9429 81° East 512 589 35,000  Level FlightAware Transoceanic
10:28PM 48.6399 -34.7297 82° East 512 589 35,000  Level FlightAware Transoceanic
10:29PM 48.6605 -34.5163 82° East 512 589 35,000  Level FlightAware Transoceanic
10:30PM 48.6806 -34.3027 82° East 512 589 35,000  Level FlightAware Transoceanic
10:31PM 48.7004 -34.0890 82° East 512 589 35,000  Level FlightAware Transoceanic
10:32PM 48.7197 -33.8751 82° East 512 589 35,000  Level FlightAware Transoceanic
10:33PM 48.7387 -33.6610 82° East 512 589 35,000  Level FlightAware Transoceanic
10:34PM 48.7573 -33.4468 83° East 512 589 35,000  Level FlightAware Transoceanic
10:35PM 48.7755 -33.2324 83° East 512 589 35,000  Level FlightAware Transoceanic
10:36PM 48.7932 -33.0178 83° East 512 589 35,000  Level FlightAware Transoceanic
10:37PM 48.8106 -32.8032 83° East 512 589 35,000  Level FlightAware Transoceanic
10:38PM 48.8276 -32.5883 83° East 512 589 35,000  Level FlightAware Transoceanic
10:39PM 48.8442 -32.3733 83° East 512 589 35,000  Level FlightAware Transoceanic
10:40PM 48.8603 -32.1582 84° East 512 589 35,000  Level FlightAware Transoceanic
10:41PM 48.8761 -31.9430 84° East 512 589 35,000  Level FlightAware Transoceanic
10:42PM 48.8915 -31.7276 84° East 512 589 35,000  Level FlightAware Transoceanic
10:43PM 48.9065 -31.5120 84° East 512 589 35,000  Level FlightAware Transoceanic
10:44PM 48.9210 -31.2964 84° East 512 589 35,000  Level FlightAware Transoceanic
10:45PM 48.9352 -31.0806 84° East 512 589 35,000  Level FlightAware Transoceanic
10:46PM 48.9490 -30.8647 85° East 512 589 35,000  Level FlightAware Transoceanic
10:47PM 48.9623 -30.6487 85° East 512 589 35,000  Level FlightAware Transoceanic
10:48PM 48.9753 -30.4326 85° East 512 589 35,000  Level FlightAware Transoceanic
10:49PM 48.9879 -30.2163 85° East 512 589 35,000  Level FlightAware Transoceanic
10:50PM 48.9995 -30.0091 85° East  Level FlightAware Approximate
10:51PM 49.0107 -29.8018 85° East  Level FlightAware Approximate
10:52PM 49.0446 -29.8229 69° East  Level FlightAware Approximate
10:53PM 49.0932 -29.6283 69° East  Level FlightAware Approximate
10:53PM 49.0000 -30.0000 69° East 484 557 35,000  Level ETMS Enhanced Traffic Management System
10:54PM 49.1415 -29.4333 69° East  Level FlightAware Approximate
10:55PM 49.1894 -29.2379 69° East  Level FlightAware Approximate
10:56PM 49.2371 -29.0422 69° East  Level FlightAware Approximate
10:57PM 49.2844 -28.8460 70° East  Level FlightAware Approximate
10:58PM 49.3313 -28.6495 70° East  Level FlightAware Approximate
10:59PM 49.3308 -28.6518 70° East 484 557 35,000  Level FlightAware Transoceanic
11:00PM 49.3768 -28.4577 70° East 484 557 35,000  Level FlightAware Transoceanic
11:01PM 49.4224 -28.2633 70° East 484 557 35,000  Level FlightAware Transoceanic
11:02PM 49.4677 -28.0685 70° East 484 557 35,000  Level FlightAware Transoceanic
11:03PM 49.5127 -27.8733 71° East 484 557 35,000  Level FlightAware Transoceanic
11:04PM 49.5574 -27.6778 71° East 484 557 35,000  Level FlightAware Transoceanic
11:05PM 49.6017 -27.4819 71° East 484 557 35,000  Level FlightAware Transoceanic
11:06PM 49.6457 -27.2857 71° East 484 557 35,000  Level FlightAware Transoceanic
11:07PM 49.6893 -27.0891 71° East 484 557 35,000  Level FlightAware Transoceanic
11:08PM 49.7327 -26.8922 71° East 484 557 35,000  Level FlightAware Transoceanic
11:09PM 49.7757 -26.6949 71° East 484 557 35,000  Level FlightAware Transoceanic
11:10PM 49.8183 -26.4973 72° East 484 557 35,000  Level FlightAware Transoceanic
11:11PM 49.8607 -26.2993 72° East 484 557 35,000  Level FlightAware Transoceanic
11:12PM 49.9026 -26.1010 72° East 484 557 35,000  Level FlightAware Transoceanic
11:13PM 49.9443 -25.9023 72° East 484 557 35,000  Level FlightAware Transoceanic
11:14PM 49.9856 -25.7033 72° East 484 557 35,000  Level FlightAware Transoceanic
11:15PM 50.0266 -25.5040 72° East 484 557 35,000  Level FlightAware Transoceanic
11:16PM 50.0672 -25.3043 72° East 484 557 35,000  Level FlightAware Transoceanic
11:17PM 50.1075 -25.1043 73° East 484 557 35,000  Level FlightAware Transoceanic
11:18PM 50.1474 -24.9039 73° East 484 557 35,000  Level FlightAware Transoceanic
11:19PM 50.1870 -24.7032 73° East 484 557 35,000  Level FlightAware Transoceanic
11:20PM 50.2263 -24.5022 73° East 484 557 35,000  Level FlightAware Transoceanic
11:21PM 50.2652 -24.3008 73° East 484 557 35,000  Level FlightAware Transoceanic
11:22PM 50.3037 -24.0992 73° East 484 557 35,000  Level FlightAware Transoceanic
11:23PM 50.3419 -23.8972 74° East 484 557 35,000  Level FlightAware Transoceanic
11:24PM 50.3798 -23.6948 74° East 484 557 35,000  Level FlightAware Transoceanic
11:25PM 50.4173 -23.4922 74° East 484 557 35,000  Level FlightAware Transoceanic
11:26PM 50.4544 -23.2892 74° East 484 557 35,000  Level FlightAware Transoceanic
11:27PM 50.4912 -23.0859 74° East 484 557 35,000  Level FlightAware Transoceanic
11:28PM 50.5276 -22.8823 74° East 484 557 35,000  Level FlightAware Transoceanic
11:29PM 50.5637 -22.6784 75° East 484 557 35,000  Level FlightAware Transoceanic
11:30PM 50.5994 -22.4742 75° East 484 557 35,000  Level FlightAware Transoceanic
11:31PM 50.6348 -22.2696 75° East 484 557 35,000  Level FlightAware Transoceanic
11:32PM 50.6698 -22.0648 75° East 484 557 35,000  Level FlightAware Transoceanic
11:33PM 50.7045 -21.8596 75° East 484 557 35,000  Level FlightAware Transoceanic
11:34PM 50.7388 -21.6542 75° East 484 557 35,000  Level FlightAware Transoceanic
11:35PM 50.7727 -21.4484 75° East 484 557 35,000  Level FlightAware Transoceanic
11:36PM 50.8063 -21.2424 76° East 484 557 35,000  Level FlightAware Transoceanic
11:37PM 50.8395 -21.0360 76° East 484 557 35,000  Level FlightAware Transoceanic
11:38PM 50.8723 -20.8294 76° East 484 557 35,000  Level FlightAware Transoceanic
11:39PM 50.9048 -20.6225 76° East 484 557 35,000  Level FlightAware Transoceanic
11:40PM 50.9369 -20.4153 76° East 484 557 35,000  Level FlightAware Transoceanic
11:41PM 50.9686 -20.2078 76° East 484 557 35,000  Level FlightAware Transoceanic
11:42PM 51.0005 -19.9970 76° East  Level FlightAware Approximate
11:43PM 51.0008 -19.9940 78° East  Level FlightAware Approximate
11:44PM 51.0281 -19.7815 78° East  Level FlightAware Approximate
11:45PM 51.0550 -19.5687 79° East  Level FlightAware Approximate
11:46PM 51.0815 -19.3557 79° East  Level FlightAware Approximate
11:47PM 51.1076 -19.1424 79° East  Level FlightAware Approximate
11:48PM 51.1333 -18.9289 79° East  Level FlightAware Approximate
11:49PM 51.1586 -18.7152 79° East  Level FlightAware Approximate
11:50PM 51.1836 -18.5012 79° East  Level FlightAware Approximate
11:51PM 51.2082 -18.2871 80° East  Level FlightAware Approximate
11:52PM 51.2323 -18.0727 80° East  Level FlightAware Approximate
11:53PM 51.2561 -17.8580 80° East  Level FlightAware Approximate
11:54PM 51.2795 -17.6432 80° East  Level FlightAware Approximate
11:55PM 51.3025 -17.4281 80° East  Level FlightAware Approximate
11:56PM 51.3251 -17.2128 80° East  Level FlightAware Approximate
11:57PM 51.3473 -16.9973 81° East  Level FlightAware Approximate
11:58PM 51.3691 -16.7816 81° East  Level FlightAware Approximate
11:59PM 51.3905 -16.5657 81° East  Level FlightAware Approximate
12:00AM 51.4115 -16.3496 81° East  Level FlightAware Approximate
12:01AM 51.4321 -16.1332 81° East  Level FlightAware Approximate
12:02AM 51.4523 -15.9167 81° East  Level FlightAware Approximate
12:03AM 51.4722 -15.7001 82° East  Level FlightAware Approximate
12:04AM 51.4916 -15.4832 82° East  Level FlightAware Approximate
12:05AM 51.5106 -15.2661 82° East  Level FlightAware Approximate
12:06AM 51.5292 -15.0489 82° East  Level FlightAware Approximate
12:07AM 51.5476 -14.8315 82° East  Level FlightAware Approximate
12:08AM 51.5656 -14.6139 82° East  Level FlightAware Approximate
12:09AM 51.5832 -14.3962 82° East  Level FlightAware Approximate
12:10AM 51.6004 -14.1784 83° East  Level FlightAware Approximate
12:11AM 51.6172 -13.9603 83° East  Level FlightAware Approximate
12:12AM 51.6336 -13.7421 83° East  Level FlightAware Approximate
12:13AM 51.6496 -13.5237 83° East  Level FlightAware Approximate
12:14AM 51.6652 -13.3052 83° East  Level FlightAware Approximate
12:15AM 51.6804 -13.0866 84° East  Level FlightAware Approximate
12:16AM 51.6952 -12.8678 84° East  Level FlightAware Approximate
12:17AM 51.7096 -12.6488 84° East  Level FlightAware Approximate
12:18AM 51.7235 -12.4297 84° East  Level FlightAware Approximate
12:19AM 51.7371 -12.2105 84° East  Level FlightAware Approximate
12:20AM 51.7503 -11.9911 84° East  Level FlightAware Approximate
12:21AM 51.7630 -11.7717 85° East  Level FlightAware Approximate
12:22AM 51.7753 -11.5521 85° East  Level FlightAware Approximate
12:23AM 51.7873 -11.3324 85° East  Level FlightAware Approximate
12:24AM 51.7988 -11.1125 85° East  Level FlightAware Approximate
12:25AM 51.8099 -10.8926 85° East  Level FlightAware Approximate
12:26AM 51.8206 -10.6725 85° East  Level FlightAware Approximate
12:27AM 51.8309 -10.4524 86° East  Level FlightAware Approximate
12:28AM 51.8407 -10.2321 86° East  Level FlightAware Approximate
12:28AM 51.4930 -10.8400 86° East 469 540 35,000  Level FlightAware
12:29AM 51.8502 -10.0118 86° East  Level FlightAware Approximate
12:29AM 51.5060 -10.7220 80° East 469 540 35,000  Level FlightAware
12:29AM 51.5250 -10.5510 80° East 468 539 35,000  Level FlightAware
12:30AM 51.5390 -10.4150 81° East 469 540 35,000  Level FlightAware
12:31AM 51.5520 -10.2920 80° East 470 541 35,000  Level FlightAware
12:32AM 51.5680 -10.1390 80° East 470 541 35,000  Level FlightAware
12:32AM 51.5860 -9.9710 80° East 472 543 35,000  Level FlightAware
12:33AM 51.6000 -9.8290 81° East 472 543 35,000  Level FlightAware
12:34AM 51.6300 -9.5330 81° East 476 548 35,000  Level FlightAware
12:35AM 51.6440 -9.3910 81° East 477 549 35,000  Level FlightAware
12:36AM 51.6570 -9.2500 81° East 477 549 35,000 -840 Level FlightAware
12:37AM 51.6751 -8.9737 81° East 460 529 33,500 -1,020 Descending FlightAware UK
12:37AM 51.6807 -8.9105 82° East 462 532 33,500  Level FlightAware UK
12:38AM 51.6862 -8.8474 82° East 464 534 33,500  Level FlightAware UK
12:38AM 51.6917 -8.7843 82° East 464 534 33,500  Level FlightAware UK
12:38AM 51.6974 -8.7212 82° East 462 532 33,500  Level FlightAware UK
12:38AM 51.7028 -8.6582 82° East 464 534 33,500  Level FlightAware UK
12:39AM 51.7082 -8.5952 82° East 460 529 33,500  Level FlightAware UK
12:39AM 51.7134 -8.5320 82° East 458 527 33,500  Level FlightAware UK
12:39AM 51.7186 -8.4689 82° East 456 525 33,500 4,980 Level FlightAware UK
12:39AM 51.7250 -8.5220 82° East 477 549 35,000  Climbing FlightAware
12:40AM 51.7239 -8.4057 82° East 458 527 33,500 -2,520 Descending FlightAware UK
12:40AM 51.7291 -8.3425 82° East 460 529 33,500  Level FlightAware UK
12:40AM 51.7343 -8.2794 82° East 464 534 33,500 3,060 Level FlightAware UK
12:40AM 51.7460 -8.2780 82° East 477 549 35,000  Climbing FlightAware
12:41AM 51.7431 -8.1734 82° East 462 532 33,500 -2,460 Descending FlightAware UK
12:41AM 51.7482 -8.1102 83° East 460 529 33,500  Level FlightAware UK
12:41AM 51.7533 -8.0471 83° East 462 532 33,500  Level FlightAware UK
12:42AM 51.7583 -7.9840 83° East 460 529 33,500 4,500 Level FlightAware UK
12:42AM 51.7690 -8.0180 83° East 476 548 35,000  Climbing FlightAware
12:42AM 51.7630 -7.9209 83° East 458 527 33,500 -2,700 Descending FlightAware UK
12:42AM 51.7678 -7.8579 83° East 456 525 33,500 3,720 Level FlightAware UK
12:42AM 51.7800 -7.8820 83° East 476 548 35,000  Climbing FlightAware
12:43AM 51.7743 -7.7738 83° East 456 525 33,500 -2,520 Descending FlightAware UK
12:43AM 51.7790 -7.7107 83° East 454 522 33,500 4,080 Level FlightAware UK
12:43AM 51.7930 -7.7200 83° East 476 548 35,000  Climbing FlightAware
12:43AM 51.7856 -7.6257 83° East 456 525 33,500 -2,400 Descending FlightAware UK
12:44AM 51.7905 -7.5625 83° East 458 527 33,500 3,600 Level FlightAware UK
12:44AM 51.8060 -7.5680 83° East 477 549 35,000  Climbing FlightAware
12:44AM 51.7966 -7.4778 83° East 456 525 33,500 -2,580 Descending FlightAware UK
12:44AM 51.8012 -7.4142 83° East 456 525 33,500  Level FlightAware UK
12:45AM 51.8056 -7.3505 84° East 458 527 33,500  Level FlightAware UK
12:45AM 51.8102 -7.2867 83° East 458 527 33,500  Level FlightAware UK
12:45AM 51.8159 -7.2219 82° East 456 525 33,500 3,720 Level FlightAware UK
12:45AM 51.8300 -7.2550 82° East 480 552 35,000  Climbing FlightAware
12:46AM 51.8221 -7.1365 82° East 456 525 33,500 -2,520 Descending FlightAware UK
12:46AM 51.8269 -7.0731 83° East 458 527 33,500 3,300 Level FlightAware UK
12:46AM 51.8440 -7.0710 83° East 483 556 35,000  Climbing FlightAware
12:46AM 51.8331 -6.9868 83° East 460 529 33,500 -2,760 Descending FlightAware UK
12:47AM 51.8374 -6.9224 84° East 462 532 33,500 3,600 Level FlightAware UK
12:47AM 51.8550 -6.9180 84° East 484 557 35,000  Climbing FlightAware
12:47AM 51.8432 -6.8365 84° East 464 534 33,500 -2,580 Descending FlightAware UK
12:47AM 51.8475 -6.7719 84° East 464 534 33,500 3,900 Level FlightAware UK
12:47AM 51.8660 -6.7750 84° East 484 557 35,000  Climbing FlightAware
12:48AM 51.8534 -6.6859 84° East 460 529 33,500 -2,460 Descending FlightAware UK
12:48AM 51.8578 -6.6207 84° East 460 529 33,500 3,420 Level FlightAware UK
12:48AM 51.8770 -6.6130 84° East 485 558 35,000  Climbing FlightAware
12:48AM 51.8638 -6.5347 84° East 462 532 33,500 -2,700 Descending FlightAware UK
12:49AM 51.8682 -6.4702 84° East 464 534 33,500 3,720 Level FlightAware UK
12:49AM 51.8870 -6.4700 84° East 484 557 35,000  Climbing FlightAware
12:49AM 51.8738 -6.3841 84° East 462 532 33,500 -2,520 Descending FlightAware UK
12:49AM 51.8780 -6.3195 84° East 464 534 33,500  Level FlightAware UK
12:49AM 51.8960 -6.3390 84° East 35,000  Climbing FlightAware
12:50AM 51.8834 -6.2334 84° East 462 532 33,500  Descending FlightAware UK
12:50AM 51.9040 -6.2100 84° East 484 557 35,000  Climbing FlightAware
12:50AM 51.8875 -6.1689 84° East 464 534 33,500 -6,000 Descending FlightAware UK
12:50AM 51.8902 -6.1258 84° East 464 534 33,500  Level FlightAware UK
12:51AM 51.8941 -6.0613 84° East 464 534 33,500  Level FlightAware UK
12:51AM 51.8983 -5.9961 84° East 464 534 33,500 4,080 Level FlightAware UK
12:51AM 51.9170 -6.0130 84° East 484 557 35,000  Climbing FlightAware
12:51AM 51.9023 -5.9315 84° East 462 532 33,500  Descending FlightAware UK
12:51AM 51.9230 -5.9160 84° East 484 557 35,000  Climbing FlightAware
12:52AM 51.9086 -5.8245 84° East 464 534 33,500 -2,400 Descending FlightAware UK
12:52AM 51.9123 -5.7592 85° East 464 534 33,500 4,260 Level FlightAware UK
12:52AM 51.9330 -5.7650 85° East 484 557 35,000  Climbing FlightAware
12:52AM 51.9163 -5.6952 85° East 464 534 33,500 -2,760 Descending FlightAware UK
12:53AM 51.9201 -5.6306 84° East 462 532 33,500 3,000 Level FlightAware UK
12:53AM 51.9420 -5.6030 84° East 483 556 35,000  Climbing FlightAware
12:53AM 51.9266 -5.5225 84° East 464 534 33,500 -2,460 Descending FlightAware UK
12:53AM 51.9304 -5.4582 84° East 464 534 33,500 4,260 Level FlightAware UK
12:53AM 51.9510 -5.4630 84° East 483 556 35,000  Climbing FlightAware
12:54AM 51.9341 -5.3939 84° East 464 534 33,500 -2,760 Descending FlightAware UK
12:54AM 51.9375 -5.3288 85° East 464 534 33,500 3,000 Level FlightAware UK
12:54AM 51.9600 -5.3060 85° East 482 555 35,000  Climbing FlightAware
12:55AM 51.9431 -5.2214 85° East 462 532 33,500 -2,520 Descending FlightAware UK
12:55AM 51.9467 -5.1577 85° East 462 532 33,500 4,080 Level FlightAware UK
12:55AM 51.9670 -5.1610 85° East 480 552 35,000  Climbing FlightAware
12:55AM 51.9516 -5.0713 85° East 460 529 33,500 -2,400 Descending FlightAware UK
12:56AM 51.9550 -5.0080 85° East 458 527 33,500 3,600 Level FlightAware UK
12:56AM 51.9760 -4.9990 85° East 480 552 35,000  Climbing FlightAware
12:56AM 51.9597 -4.9219 85° East 458 527 33,500 -2,580 Descending FlightAware UK
12:56AM 51.9631 -4.8585 85° East 458 527 33,500 3,900 Level FlightAware UK
12:56AM 51.9840 -4.8580 85° East 480 552 35,000  Climbing FlightAware
12:57AM 51.9675 -4.7722 85° East 458 527 33,500 -2,460 Descending FlightAware UK
12:57AM 51.9707 -4.7078 85° East 458 527 33,500 4,260 Level FlightAware UK
12:57AM 51.9910 -4.7120 85° East 480 552 35,000  Climbing FlightAware
12:57AM 51.9739 -4.6434 85° East 458 527 33,500  Descending FlightAware UK
12:58AM 51.9973 -4.5847 85° East 481 554 35,000  Climbing FlightAware ADS-B
12:58AM 51.9802 -4.5154 85° East 460 529 33,500  Descending FlightAware UK
12:58AM 52.0024 -4.4749 85° East 480 552 35,000  Climbing FlightAware ADS-B
12:58AM 51.9854 -4.4080 85° East 460 529 33,500  Descending FlightAware UK
12:59AM 52.0076 -4.3645 85° East 481 554 35,000  Climbing FlightAware ADS-B
12:59AM 51.9907 -4.2998 85° East 460 529 33,500  Descending FlightAware UK
12:59AM 52.0127 -4.2546 85° East 481 554 35,000  Climbing FlightAware ADS-B
12:59AM 51.9956 -4.1923 85° East 464 534 33,500  Descending FlightAware UK
01:00AM 52.0175 -4.1462 85° East 481 554 35,000  Climbing FlightAware ADS-B
01:00AM 52.0004 -4.0855 85° East 462 532 33,500  Descending FlightAware UK
01:00AM 52.0223 -4.0356 85° East 481 554 35,000  Climbing FlightAware ADS-B
01:00AM 52.0054 -3.9773 85° East 462 532 33,500 -2,760 Descending FlightAware UK
01:01AM 52.0082 -3.9127 86° East 462 532 33,500 4,980 Level FlightAware UK
01:01AM 52.0273 -3.9199 86° East 481 554 35,000  Climbing FlightAware ADS-B
01:01AM 52.0111 -3.8482 86° East 460 529 33,500  Descending FlightAware UK
01:01AM 52.0318 -3.8094 86° East 481 554 35,000  Climbing FlightAware ADS-B
01:01AM 52.0157 -3.7400 86° East 462 532 33,500  Descending FlightAware UK
01:02AM 52.0362 -3.6974 86° East 481 554 35,000  Climbing FlightAware ADS-B
01:02AM 52.0201 -3.6332 86° East 464 534 33,500  Descending FlightAware UK
01:02AM 52.0405 -3.5838 86° East 481 554 35,000  Climbing FlightAware ADS-B
01:02AM 52.0244 -3.5256 86° East 460 529 33,500  Descending FlightAware UK
01:03AM 52.0450 -3.4695 86° East 481 554 35,000  Climbing FlightAware ADS-B
01:03AM 52.0297 -3.3956 86° East 460 529 33,500  Descending FlightAware UK
01:03AM 52.0489 -3.3601 86° East 482 555 35,000  Climbing FlightAware ADS-B
01:04AM 52.0341 -3.2878 86° East 460 529 33,500  Descending FlightAware UK
01:04AM 52.0527 -3.2514 86° East 482 555 35,000  Climbing FlightAware ADS-B
01:04AM 52.0382 -3.1792 86° East 460 529 33,500  Descending FlightAware UK
01:04AM 52.0568 -3.1339 86° East 482 555 35,000  Climbing FlightAware ADS-B
01:05AM 52.0420 -3.0718 86° East 460 529 33,500  Descending FlightAware UK
01:05AM 52.0604 -3.0228 86° East 483 556 35,000  Climbing FlightAware ADS-B
01:05AM 52.0460 -2.9628 86° East 460 529 33,500  Descending FlightAware UK
01:05AM 52.0640 -2.9121 86° East 484 557 35,000  Climbing FlightAware ADS-B
01:06AM 52.0498 -2.8551 86° East 462 532 33,500  Descending FlightAware UK
01:06AM 52.0675 -2.8015 86° East 484 557 35,000  Climbing FlightAware ADS-B
01:06AM 52.0544 -2.7242 86° East 462 532 33,500  Descending FlightAware UK
01:06AM 52.0708 -2.6923 86° East 484 557 35,000  Climbing FlightAware ADS-B
01:07AM 52.0580 -2.6158 86° East 464 534 33,500  Descending FlightAware UK
01:07AM 52.0738 -2.5831 86° East 483 556 35,000  Climbing FlightAware ADS-B
01:07AM 52.0614 -2.5077 86° East 464 534 33,500  Descending FlightAware UK
01:07AM 52.0769 -2.4740 86° East 482 555 35,000  Climbing FlightAware ADS-B
01:08AM 52.0648 -2.3986 86° East 464 534 33,500  Descending FlightAware UK
01:08AM 52.0798 -2.3643 86° East 482 555 35,000  Climbing FlightAware ADS-B
01:08AM 52.0681 -2.2897 86° East 464 534 33,500  Descending FlightAware UK
01:08AM 52.0827 -2.2524 86° East 481 554 35,000  Climbing FlightAware ADS-B
01:09AM 52.0715 -2.1815 86° East 464 534 33,500  Descending FlightAware UK
01:09AM 52.0853 -2.1437 86° East 480 552 35,000  Climbing FlightAware ADS-B
01:09AM 52.0745 -2.0742 86° East 464 534 33,500  Descending FlightAware UK
01:09AM 52.0879 -2.0344 86° East 480 552 35,000  Climbing FlightAware ADS-B
01:10AM 52.0774 -1.9657 86° East 462 532 33,500  Descending FlightAware UK
01:10AM 52.0905 -1.9236 86° East 479 551 35,000  Climbing FlightAware ADS-B
01:10AM 52.0804 -1.8572 86° East 460 529 33,500  Descending FlightAware UK
01:10AM 52.0927 -1.8144 86° East 479 551 35,000  Climbing FlightAware ADS-B
01:11AM 52.0831 -1.7496 86° East 462 532 33,500  Descending FlightAware UK
01:11AM 52.0949 -1.7069 86° East 479 551 35,000  Climbing FlightAware ADS-B
01:11AM 52.0859 -1.6426 86° East 460 529 33,500  Descending FlightAware UK
01:11AM 52.0972 -1.5984 86° East 479 551 35,000  Climbing FlightAware ADS-B
01:12AM 52.0884 -1.5341 86° East 460 529 33,500  Descending FlightAware UK
01:12AM 52.0991 -1.4892 86° East 479 551 35,000  Climbing FlightAware ADS-B
01:12AM 52.0908 -1.4263 86° East 460 529 33,500  Descending FlightAware UK
01:12AM 52.1010 -1.3822 86° East 479 551 35,000  Climbing FlightAware ADS-B
01:13AM 52.0932 -1.3185 86° East 460 529 33,500  Descending FlightAware UK
01:13AM 52.1028 -1.2730 86° East 479 551 35,000  Climbing FlightAware ADS-B
01:13AM 52.0955 -1.2099 86° East 460 529 33,500  Descending FlightAware UK
01:13AM 52.1046 -1.1647 86° East 479 551 35,000  Climbing FlightAware ADS-B
01:14AM 52.0979 -1.1021 86° East 462 532 33,500  Descending FlightAware UK
01:14AM 52.1061 -1.0562 86° East 479 551 35,000  Climbing FlightAware ADS-B
01:14AM 52.0998 -0.9935 86° East 462 532 33,500  Descending FlightAware UK
01:14AM 52.1076 -0.9464 86° East 478 550 35,000  Climbing FlightAware ADS-B
01:15AM 52.1018 -0.8857 86° East 462 532 33,500  Descending FlightAware UK
01:15AM 52.1090 -0.8366 86° East 478 550 35,000  Climbing FlightAware ADS-B
01:15AM 52.1037 -0.7778 86° East 460 529 33,500  Descending FlightAware UK
01:15AM 52.1104 -0.7249 86° East 478 550 35,000  Climbing FlightAware ADS-B
01:16AM 52.1058 -0.6493 86° East 458 527 33,500  Descending FlightAware UK
01:16AM 52.1116 -0.6152 86° East 478 550 35,000  Climbing FlightAware ADS-B
01:16AM 52.1076 -0.5416 86° East 460 529 33,500  Descending FlightAware UK
01:16AM 52.1126 -0.5069 86° East 478 550 35,000  Climbing FlightAware ADS-B
01:17AM 52.1091 -0.4332 86° East 460 529 33,500  Descending FlightAware UK
01:17AM 52.1136 -0.3988 86° East 478 550 35,000  Climbing FlightAware ADS-B
01:17AM 52.1106 -0.3254 86° East 460 529 33,500  Descending FlightAware UK
01:17AM 52.1147 -0.2896 86° East 478 550 35,000  Climbing FlightAware ADS-B
01:18AM 52.1119 -0.2169 86° East 458 527 33,500  Descending FlightAware UK
01:18AM 52.1154 -0.1813 86° East 478 550 35,000  Climbing FlightAware ADS-B
01:18AM 52.1132 -0.1089 86° East 458 527 33,500  Descending FlightAware UK
01:18AM 52.1162 -0.0666 86° East 479 551 35,000  Climbing FlightAware ADS-B
01:19AM 52.1145 -0.0002 86° East 460 529 33,500  Descending FlightAware UK
01:19AM 52.1167 0.0419 86° East 479 551 35,000  Climbing FlightAware ADS-B
01:19AM 52.1155 0.1085 86° East 460 529 33,500  Descending FlightAware UK
01:19AM 52.1172 0.1525 86° East 479 551 35,000  Climbing FlightAware ADS-B
01:20AM 52.1164 0.2154 86° East 460 529 33,500  Descending FlightAware UK
01:20AM 52.1178 0.2630 86° East 479 551 35,000  Climbing FlightAware ADS-B
01:20AM 52.1175 0.3247 86° East 460 529 33,500  Descending FlightAware UK
01:21AM 52.1181 0.3764 86° East 479 551 35,000  Climbing FlightAware ADS-B
01:21AM 52.1185 0.4545 86° East 460 529 33,500  Descending FlightAware UK
01:21AM 52.1183 0.4649 86° East 479 551 35,000  Climbing FlightAware ADS-B
01:21AM 52.1213 0.5411 86° East 462 532 33,500  Descending FlightAware UK
01:22AM 52.1236 0.5854 86° East 480 552 35,000  Climbing FlightAware ADS-B
01:22AM 52.1282 0.6496 86° East 460 529 33,500  Descending FlightAware UK
01:22AM 52.1303 0.6971 86° East 480 552 35,000  Climbing FlightAware ADS-B
01:22AM 52.1364 0.7791 86° East 460 529 33,500  Descending FlightAware UK
01:23AM 52.1386 0.8355 86° East 479 551 35,000  Climbing FlightAware ADS-B
01:23AM 52.1446 0.9087 86° East 458 527 33,500  Descending FlightAware UK
01:23AM 52.1453 0.9451 86° East 480 552 35,000  Climbing FlightAware ADS-B
01:23AM 52.1516 1.0166 86° East 456 525 33,500  Descending FlightAware UK
01:24AM 52.1521 1.0555 86° East 481 554 35,000  Climbing FlightAware ADS-B
01:24AM 52.1590 1.1253 86° East 456 525 33,500  Descending FlightAware UK
01:24AM 52.1593 1.1711 86° East 481 554 35,000 -540 Climbing FlightAware ADS-B
01:25AM 52.1674 1.2550 86° East 460 529 33,200 -1,320 Descending FlightAware UK
01:25AM 52.1664 1.2849 86° East 485 558 34,300 -2,040 Climbing FlightAware ADS-B
01:25AM 52.1744 1.3637 86° East 466 536 32,200 -1,800 Descending FlightAware UK
01:25AM 52.1732 1.3944 86° East 479 551 33,400 2,460 Climbing FlightAware ADS-B
01:25AM 52.1762 1.4358 83° East 478 550 33,200 -4,020 Descending FlightAware ADS-B
01:26AM 52.1884 1.5134 83° East 462 532 31,400 -840 Descending FlightAware UK
01:26AM 52.1892 1.5408 83° East 467 537 32,800 -1,440 Climbing FlightAware ADS-B
01:26AM 52.2030 1.6166 83° East 448 516 30,700 -1,800 Descending FlightAware UK
01:26AM 52.2040 1.6435 83° East 462 532 31,900 -1,440 Climbing FlightAware ADS-B
01:27AM 52.2181 1.7183 83° East 446 513 30,000 -1,440 Descending FlightAware UK
01:27AM 52.2206 1.7555 83° East 452 520 31,100 -1,980 Climbing FlightAware ADS-B
01:27AM 52.2332 1.8186 83° East 438 504 29,000 -1,800 Descending FlightAware UK
01:28AM 52.2353 1.8565 83° East 441 507 30,200 -1,680 Climbing FlightAware ADS-B
01:28AM 52.2505 1.9351 83° East 430 495 28,000 -1,980 Descending FlightAware UK
01:28AM 52.2511 1.9651 83° East 432 497 29,100 -2,040 Climbing FlightAware ADS-B
01:28AM 52.2642 2.0307 83° East 418 481 27,000 -2,040 Descending FlightAware UK
01:29AM 52.2650 2.0628 83° East 428 493 28,100 -2,220 Climbing FlightAware ADS-B
01:29AM 52.2777 2.1252 83° East 414 476 25,900 -2,820 Descending FlightAware UK
01:29AM 52.2785 2.1591 83° East 420 483 26,600 -3,180 Climbing FlightAware ADS-B
01:29AM 52.2935 2.2365 83° East 396 456 24,000 -5,880 Descending FlightAware UK
01:30AM 52.3013 2.2918 77° East 394 453 22,900 -300 Descending FlightAware UK
01:30AM 52.3020 2.3270 77° East 409 471 23,800 -2,040 Climbing FlightAware
01:30AM 52.3191 2.4186 77° East 384 442 21,500 -3,660 Descending FlightAware UK
01:31AM 52.3266 2.4722 77° East 380 437 21,500 4,500 Level FlightAware UK
01:31AM 52.3190 2.4480 77° East 397 457 23,000  Climbing FlightAware
01:31AM 52.3343 2.5244 77° East 380 437 21,500 -2,400 Descending FlightAware UK
01:31AM 52.3438 2.5953 78° East 382 440 21,400 2,880 Descending FlightAware UK
01:32AM 52.3370 2.5800 78° East 398 458 22,900 -1,500 Climbing FlightAware
01:32AM 52.3536 2.6658 78° East 380 437 20,800 -4,260 Descending FlightAware UK
01:32AM 52.3609 2.7195 77° East 378 435 20,300 3,120 Descending FlightAware UK
01:32AM 52.3530 2.6970 77° East 396 456 21,900 -1,380 Climbing FlightAware
01:32AM 52.3683 2.7732 77° East 376 433 19,900 -4,560 Descending FlightAware UK
01:33AM 52.3753 2.8254 78° East 376 433 19,400 3,600 Descending FlightAware UK
01:33AM 52.3670 2.7980 78° East 393 452 21,100 -1,380 Climbing FlightAware
01:33AM 52.3828 2.8784 78° East 372 428 19,000 -4,440 Descending FlightAware UK
01:33AM 52.3898 2.9302 77° East 368 423 18,600 1,380 Descending FlightAware UK
01:34AM 52.3870 2.9440 77° East 388 447 19,800 -1,740 Climbing FlightAware
01:34AM 52.4059 3.0497 77° East 366 421 17,400 -3,960 Descending FlightAware UK
01:34AM 52.4126 3.1009 78° East 364 419 16,900 -1,680 Descending FlightAware UK
01:35AM 52.4194 3.1516 77° East 360 414 16,400 -1,860 Descending FlightAware UK
01:35AM 52.4266 3.2022 77° East 356 410 15,800 2,340 Descending FlightAware UK
01:35AM 52.4210 3.1890 77° East 373 429 17,300 -1,800 Climbing FlightAware
01:35AM 52.4349 3.2675 77° East 352 405 15,100 -4,560 Descending FlightAware UK
01:36AM 52.4416 3.3172 78° East 350 403 14,500 2,520 Descending FlightAware UK
01:36AM 52.4360 3.3000 78° East 368 423 16,000 -1,680 Climbing FlightAware
01:36AM 52.4482 3.3669 78° East 348 400 14,000 -4,740 Descending FlightAware UK
01:36AM 52.4549 3.4158 77° East 344 396 13,400 1,380 Descending FlightAware UK
01:36AM 52.4520 3.4200 77° East 360 414 14,700 -1,620 Climbing FlightAware
01:37AM 52.4652 3.4957 77° East 342 394 12,600 -4,380 Descending FlightAware UK
01:37AM 52.4714 3.5429 78° East 338 389 12,100 2,400 Descending FlightAware UK
01:37AM 52.4660 3.5260 78° East 353 406 13,500 -1,800 Climbing FlightAware
01:37AM 52.4792 3.6050 78° East 336 387 11,400 -1,500 Descending FlightAware UK
01:38AM 52.4790 3.6260 78° East 344 396 12,500 -1,320 Climbing FlightAware
01:38AM 52.4914 3.6976 78° East 324 373 10,600 -4,320 Descending FlightAware UK
01:38AM 52.4973 3.7432 78° East 322 371 10,000 1,500 Descending FlightAware UK
01:39AM 52.4940 3.7380 78° East 339 390 11,300 -1,680 Climbing FlightAware
01:39AM 52.5090 3.8331 78° East 318 366 9,000 -1,500 Descending FlightAware UK
01:39AM 52.5070 3.8390 78° East 337 388 10,300 -840 Climbing FlightAware
01:39AM 52.5188 3.9091 78° East 1 1 8,600 -3,000 Descending FlightAware UK
01:40AM 52.5246 3.9533 78° East 1 1 8,600 3,720 Level FlightAware UK
01:40AM 52.5180 3.9350 78° East 303 349 10,100 3,660 Climbing FlightAware
01:40AM 52.5150 3.9710 98° East 290 334 9,900 -4,020 Descending FlightAware
01:40AM 52.5127 4.0290 98° East 1 1 8,100 -1,020 Descending FlightAware UK
01:41AM 52.5020 4.0320 98° East 282 325 9,400 -1,380 Climbing FlightAware
01:41AM 52.4952 4.1011 98° East 1 1 7,300 -1,680 Descending FlightAware UK
01:41AM 52.4900 4.0820 98° East 284 327 8,700 -1,800 Climbing FlightAware
01:41AM 52.4834 4.1495 98° East 1 1 6,600 -1,440 Descending FlightAware UK
01:42AM 52.4750 4.1430 98° East 286 329 8,000 2,640 Climbing FlightAware
01:42AM 52.4680 4.1710 112° Southeast 284 327 7,700 -1,200 Descending FlightAware
01:42AM 52.4550 4.2230 112° Southeast 281 323 7,200 -3,240 Descending FlightAware
01:43AM 52.4467 4.2935 112° Southeast 1 1 5,200 -1,020 Descending FlightAware UK
01:43AM 52.4420 4.2820 112° Southeast 269 310 6,700 1,560 Climbing FlightAware
01:43AM 52.4290 4.3360 112° Southeast 246 283 6,200 -1,080 Descending FlightAware
01:43AM 52.4230 4.3620 111° Southeast 241 277 5,900 -1,080 Descending FlightAware
01:44AM 52.4130 4.4020 112° Southeast 241 277 5,500 -900 Descending FlightAware
01:44AM 52.4100 4.4300 100° East 247 284 5,300 -1,020 Descending FlightAware
01:44AM 52.4160 4.4560 69° East 249 287 5,000 -1,200 Descending FlightAware
01:45AM 52.4240 4.4690 45° Northeast 246 283 4,800 -1,680 Descending FlightAware
01:45AM 52.4400 4.4820 26° Northeast 245 282 4,300 -1,740 Descending FlightAware
01:45AM 52.4720 4.5020 21° North 247 284 3,500 -1,560 Descending FlightAware
01:46AM 52.4980 4.5180 21° North 246 283 2,900 -1,200 Descending FlightAware
01:46AM 52.5140 4.5280 21° North 245 282 2,700 -720 Descending FlightAware
01:46AM 52.5430 4.5460 21° North 244 281 2,400 -420 Descending FlightAware
01:47AM 52.5540 4.5620 41° Northeast 233 268 2,400  Level FlightAware
01:47AM 52.5580 4.5780 68° East 222 255 2,400  Level FlightAware
01:47AM 52.5600 4.6030 82° East 209 241 2,400  Level FlightAware
01:48AM 52.5620 4.6470 86° East 190 219 2,400  Level FlightAware
01:48AM 52.5540 4.6660 125° Southeast 181 208 2,400  Level FlightAware
01:48AM 52.5370 4.6810 152° Southeast 178 205 2,400  Level FlightAware
01:49AM 52.5140 4.6990 155° Southeast 173 199 2,400  Level FlightAware
01:49AM 52.5020 4.7020 171° South 169 194 2,400  Level FlightAware
01:49AM 52.4820 4.7000 183° South 168 193 2,400  Level FlightAware
01:50AM 52.4630 4.6980 184° South 165 190 2,400 -600 Level FlightAware
01:50AM 52.4390 4.6960 183° South 155 178 1,900 -900 Descending FlightAware
01:51AM 52.4200 4.6940 184° South 124 143 1,500 -720 Descending FlightAware
01:51AM 52.4030 4.6930 182° South 116 133 1,200 -660 Descending FlightAware
01:52AM 52.3890 4.6910 185° South 118 136 900 -720 Descending FlightAware
01:54AM 52.3000 4.7500 78° East  Level FlightAware Approximate